sensor_id;sensor_type;location;lat;lon;timestamp;P1;durP1;ratioP1;P2;durP2;ratioP2
30233;SDS011;17046;52.074;4.748;2023-03-01T00:02:19;33.83;;;19.50;;
30233;SDS011;17046;52.074;4.748;2023-03-01T00:04:45;35.30;;;19.20;;
30233;SDS011;17046;52.074;4.748;2023-03-01T00:07:11;32.70;;;18.17;;
30233;SDS011;17046;52.074;4.748;2023-03-01T00:09:36;37.57;;;19.53;;
30233;SDS011;17046;52.074;4.748;2023-03-01T00:12:03;34.23;;;19.17;;
30233;SDS011;17046;52.074;4.748;2023-03-01T00:14:29;35.63;;;19.63;;
30233;SDS011;17046;52.074;4.748;2023-03-01T00:16:54;36.23;;;19.40;;
30233;SDS011;17046;52.074;4.748;2023-03-01T00:19:20;35.90;;;20.13;;
30233;SDS011;17046;52.074;4.748;2023-03-01T00:21:47;36.07;;;20.87;;
30233;SDS011;17046;52.074;4.748;2023-03-01T00:24:13;36.77;;;21.03;;
30233;SDS011;17046;52.074;4.748;2023-03-01T00:26:39;40.40;;;21.53;;
30233;SDS011;17046;52.074;4.748;2023-03-01T00:29:05;39.93;;;21.03;;
30233;SDS011;17046;52.074;4.748;2023-03-01T00:31:32;38.13;;;20.80;;
30233;SDS011;17046;52.074;4.748;2023-03-01T00:33:59;35.13;;;20.20;;
30233;SDS011;17046;52.074;4.748;2023-03-01T00:36:28;38.30;;;22.17;;
30233;SDS011;17046;52.074;4.748;2023-03-01T00:38:55;40.47;;;21.57;;
30233;SDS011;17046;52.074;4.748;2023-03-01T00:41:22;39.77;;;22.10;;
30233;SDS011;17046;52.074;4.748;2023-03-01T00:43:48;42.73;;;23.70;;
30233;SDS011;17046;52.074;4.748;2023-03-01T00:46:18;37.87;;;21.67;;
30233;SDS011;17046;52.074;4.748;2023-03-01T00:48:46;41.27;;;21.37;;
30233;SDS011;17046;52.074;4.748;2023-03-01T00:51:19;42.63;;;23.97;;
30233;SDS011;17046;52.074;4.748;2023-03-01T00:53:47;47.17;;;25.90;;
30233;SDS011;17046;52.074;4.748;2023-03-01T00:56:15;46.33;;;27.00;;
30233;SDS011;17046;52.074;4.748;2023-03-01T00:58:41;48.83;;;26.77;;
30233;SDS011;17046;52.074;4.748;2023-03-01T01:01:11;55.07;;;28.03;;
30233;SDS011;17046;52.074;4.748;2023-03-01T01:06:13;54.83;;;30.00;;
30233;SDS011;17046;52.074;4.748;2023-03-01T01:08:40;56.00;;;29.73;;
30233;SDS011;17046;52.074;4.748;2023-03-01T01:11:08;56.90;;;30.87;;
30233;SDS011;17046;52.074;4.748;2023-03-01T01:13:34;59.43;;;31.97;;
30233;SDS011;17046;52.074;4.748;2023-03-01T01:16:00;59.13;;;31.73;;
30233;SDS011;17046;52.074;4.748;2023-03-01T01:18:26;57.00;;;31.27;;
30233;SDS011;17046;52.074;4.748;2023-03-01T01:20:52;58.60;;;30.50;;
30233;SDS011;17046;52.074;4.748;2023-03-01T01:23:17;57.07;;;31.03;;
30233;SDS011;17046;52.074;4.748;2023-03-01T01:25:43;62.87;;;31.57;;
30233;SDS011;17046;52.074;4.748;2023-03-01T01:28:08;58.67;;;30.53;;
30233;SDS011;17046;52.074;4.748;2023-03-01T01:30:34;66.10;;;32.97;;
30233;SDS011;17046;52.074;4.748;2023-03-01T01:32:59;58.33;;;31.00;;
30233;SDS011;17046;52.074;4.748;2023-03-01T01:35:25;56.23;;;30.97;;
30233;SDS011;17046;52.074;4.748;2023-03-01T01:37:52;59.20;;;31.57;;
30233;SDS011;17046;52.074;4.748;2023-03-01T01:40:17;57.87;;;30.60;;
30233;SDS011;17046;52.074;4.748;2023-03-01T01:42:43;59.33;;;30.60;;
30233;SDS011;17046;52.074;4.748;2023-03-01T01:47:59;55.90;;;29.13;;
30233;SDS011;17046;52.074;4.748;2023-03-01T01:50:29;59.73;;;30.53;;
30233;SDS011;17046;52.074;4.748;2023-03-01T01:53:02;52.93;;;28.27;;
30233;SDS011;17046;52.074;4.748;2023-03-01T01:55:31;56.30;;;29.33;;
30233;SDS011;17046;52.074;4.748;2023-03-01T01:57:58;52.40;;;28.53;;
30233;SDS011;17046;52.074;4.748;2023-03-01T02:00:27;54.60;;;27.20;;
30233;SDS011;17046;52.074;4.748;2023-03-01T02:02:59;54.67;;;28.53;;
30233;SDS011;17046;52.074;4.748;2023-03-01T02:08:20;47.70;;;26.17;;
30233;SDS011;17046;52.074;4.748;2023-03-01T02:10:48;53.47;;;29.23;;
30233;SDS011;17046;52.074;4.748;2023-03-01T02:13:15;53.90;;;29.00;;
30233;SDS011;17046;52.074;4.748;2023-03-01T02:15:41;57.50;;;29.57;;
30233;SDS011;17046;52.074;4.748;2023-03-01T02:18:08;54.67;;;29.63;;
30233;SDS011;17046;52.074;4.748;2023-03-01T02:23:27;62.00;;;31.07;;
30233;SDS011;17046;52.074;4.748;2023-03-01T02:28:25;62.70;;;30.67;;
30233;SDS011;17046;52.074;4.748;2023-03-01T02:30:51;63.30;;;30.90;;
30233;SDS011;17046;52.074;4.748;2023-03-01T02:33:37;61.57;;;32.17;;
30233;SDS011;17046;52.074;4.748;2023-03-01T02:36:05;68.60;;;32.67;;
30233;SDS011;17046;52.074;4.748;2023-03-01T02:38:33;64.73;;;33.97;;
30233;SDS011;17046;52.074;4.748;2023-03-01T02:40:59;64.97;;;33.27;;
30233;SDS011;17046;52.074;4.748;2023-03-01T02:43:27;68.40;;;33.97;;
30233;SDS011;17046;52.074;4.748;2023-03-01T02:45:57;69.13;;;33.90;;
30233;SDS011;17046;52.074;4.748;2023-03-01T02:48:27;68.23;;;34.13;;
30233;SDS011;17046;52.074;4.748;2023-03-01T02:50:57;62.47;;;33.20;;
30233;SDS011;17046;52.074;4.748;2023-03-01T02:56:13;71.60;;;34.60;;
30233;SDS011;17046;52.074;4.748;2023-03-01T02:58:40;65.10;;;32.03;;
30233;SDS011;17046;52.074;4.748;2023-03-01T03:01:10;59.23;;;30.47;;
30233;SDS011;17046;52.074;4.748;2023-03-01T03:03:36;67.90;;;33.53;;
30233;SDS011;17046;52.074;4.748;2023-03-01T03:06:01;64.50;;;32.77;;
30233;SDS011;17046;52.074;4.748;2023-03-01T03:08:27;63.70;;;31.73;;
30233;SDS011;17046;52.074;4.748;2023-03-01T03:10:52;60.53;;;30.33;;
30233;SDS011;17046;52.074;4.748;2023-03-01T03:13:18;67.97;;;33.27;;
30233;SDS011;17046;52.074;4.748;2023-03-01T03:15:44;69.43;;;32.57;;
30233;SDS011;17046;52.074;4.748;2023-03-01T03:18:13;64.73;;;31.97;;
30233;SDS011;17046;52.074;4.748;2023-03-01T03:20:41;62.17;;;31.20;;
30233;SDS011;17046;52.074;4.748;2023-03-01T03:23:08;67.27;;;32.70;;
30233;SDS011;17046;52.074;4.748;2023-03-01T03:25:33;65.00;;;32.50;;
30233;SDS011;17046;52.074;4.748;2023-03-01T03:28:02;65.40;;;33.10;;
30233;SDS011;17046;52.074;4.748;2023-03-01T03:30:35;58.63;;;31.07;;
30233;SDS011;17046;52.074;4.748;2023-03-01T03:33:04;61.93;;;30.97;;
30233;SDS011;17046;52.074;4.748;2023-03-01T03:35:33;58.53;;;31.27;;
30233;SDS011;17046;52.074;4.748;2023-03-01T03:38:05;61.23;;;32.00;;
30233;SDS011;17046;52.074;4.748;2023-03-01T03:40:40;64.60;;;31.70;;
30233;SDS011;17046;52.074;4.748;2023-03-01T03:43:16;61.50;;;32.83;;
30233;SDS011;17046;52.074;4.748;2023-03-01T03:45:46;63.50;;;31.37;;
30233;SDS011;17046;52.074;4.748;2023-03-01T03:48:13;63.57;;;31.57;;
30233;SDS011;17046;52.074;4.748;2023-03-01T03:50:40;61.43;;;30.13;;
30233;SDS011;17046;52.074;4.748;2023-03-01T03:53:07;68.43;;;29.47;;
30233;SDS011;17046;52.074;4.748;2023-03-01T03:55:35;66.43;;;29.83;;
30233;SDS011;17046;52.074;4.748;2023-03-01T03:58:04;58.13;;;30.23;;
30233;SDS011;17046;52.074;4.748;2023-03-01T04:00:32;59.03;;;30.13;;
30233;SDS011;17046;52.074;4.748;2023-03-01T04:02:59;58.17;;;28.03;;
30233;SDS011;17046;52.074;4.748;2023-03-01T04:05:26;88.07;;;30.57;;
30233;SDS011;17046;52.074;4.748;2023-03-01T04:07:52;88.30;;;29.47;;
30233;SDS011;17046;52.074;4.748;2023-03-01T04:10:26;62.57;;;28.77;;
30233;SDS011;17046;52.074;4.748;2023-03-01T04:12:53;107.60;;;30.87;;
30233;SDS011;17046;52.074;4.748;2023-03-01T04:15:21;128.50;;;31.73;;
30233;SDS011;17046;52.074;4.748;2023-03-01T04:17:48;82.70;;;28.97;;
30233;SDS011;17046;52.074;4.748;2023-03-01T04:20:16;61.33;;;27.57;;
30233;SDS011;17046;52.074;4.748;2023-03-01T04:22:49;62.40;;;28.93;;
30233;SDS011;17046;52.074;4.748;2023-03-01T04:25:16;57.80;;;28.67;;
30233;SDS011;17046;52.074;4.748;2023-03-01T04:27:42;63.93;;;27.90;;
30233;SDS011;17046;52.074;4.748;2023-03-01T04:30:08;64.37;;;27.73;;
30233;SDS011;17046;52.074;4.748;2023-03-01T04:32:34;59.10;;;29.07;;
30233;SDS011;17046;52.074;4.748;2023-03-01T04:35:00;56.07;;;28.37;;
30233;SDS011;17046;52.074;4.748;2023-03-01T04:37:25;61.53;;;28.27;;
30233;SDS011;17046;52.074;4.748;2023-03-01T04:39:51;51.80;;;26.33;;
30233;SDS011;17046;52.074;4.748;2023-03-01T04:42:17;53.67;;;27.43;;
30233;SDS011;17046;52.074;4.748;2023-03-01T04:44:43;50.27;;;27.20;;
30233;SDS011;17046;52.074;4.748;2023-03-01T04:47:10;49.13;;;27.10;;
30233;SDS011;17046;52.074;4.748;2023-03-01T04:49:36;53.53;;;27.57;;
30233;SDS011;17046;52.074;4.748;2023-03-01T04:52:02;49.40;;;25.97;;
30233;SDS011;17046;52.074;4.748;2023-03-01T04:54:29;48.33;;;25.60;;
30233;SDS011;17046;52.074;4.748;2023-03-01T04:56:55;49.10;;;25.67;;
30233;SDS011;17046;52.074;4.748;2023-03-01T04:59:21;47.10;;;25.20;;
30233;SDS011;17046;52.074;4.748;2023-03-01T05:01:48;47.30;;;25.30;;
30233;SDS011;17046;52.074;4.748;2023-03-01T05:04:14;47.33;;;25.07;;
30233;SDS011;17046;52.074;4.748;2023-03-01T05:06:39;45.90;;;24.47;;
30233;SDS011;17046;52.074;4.748;2023-03-01T05:09:05;53.50;;;26.17;;
30233;SDS011;17046;52.074;4.748;2023-03-01T05:11:31;51.23;;;25.43;;
30233;SDS011;17046;52.074;4.748;2023-03-01T05:14:00;51.00;;;25.77;;
30233;SDS011;17046;52.074;4.748;2023-03-01T05:16:26;49.40;;;25.03;;
30233;SDS011;17046;52.074;4.748;2023-03-01T05:18:52;50.87;;;26.07;;
30233;SDS011;17046;52.074;4.748;2023-03-01T05:21:20;49.27;;;25.67;;
30233;SDS011;17046;52.074;4.748;2023-03-01T05:23:45;47.20;;;25.23;;
30233;SDS011;17046;52.074;4.748;2023-03-01T05:26:11;54.10;;;27.57;;
30233;SDS011;17046;52.074;4.748;2023-03-01T05:28:37;53.30;;;26.33;;
30233;SDS011;17046;52.074;4.748;2023-03-01T05:31:03;48.67;;;26.93;;
30233;SDS011;17046;52.074;4.748;2023-03-01T05:33:34;53.40;;;27.37;;
30233;SDS011;17046;52.074;4.748;2023-03-01T05:36:09;50.10;;;26.63;;
30233;SDS011;17046;52.074;4.748;2023-03-01T05:38:35;57.43;;;28.60;;
30233;SDS011;17046;52.074;4.748;2023-03-01T05:41:00;52.47;;;27.53;;
30233;SDS011;17046;52.074;4.748;2023-03-01T05:43:29;58.60;;;28.17;;
30233;SDS011;17046;52.074;4.748;2023-03-01T05:45:57;57.70;;;28.47;;
30233;SDS011;17046;52.074;4.748;2023-03-01T05:48:23;58.83;;;28.57;;
30233;SDS011;17046;52.074;4.748;2023-03-01T05:50:48;59.70;;;27.87;;
30233;SDS011;17046;52.074;4.748;2023-03-01T05:53:18;53.90;;;26.77;;
30233;SDS011;17046;52.074;4.748;2023-03-01T05:55:47;55.10;;;27.37;;
30233;SDS011;17046;52.074;4.748;2023-03-01T05:58:16;56.47;;;27.20;;
30233;SDS011;17046;52.074;4.748;2023-03-01T06:00:43;53.73;;;26.40;;
30233;SDS011;17046;52.074;4.748;2023-03-01T06:03:11;53.60;;;28.27;;
30233;SDS011;17046;52.074;4.748;2023-03-01T06:05:37;52.93;;;26.90;;
30233;SDS011;17046;52.074;4.748;2023-03-01T06:08:04;50.80;;;25.93;;
30233;SDS011;17046;52.074;4.748;2023-03-01T06:10:30;53.50;;;26.60;;
30233;SDS011;17046;52.074;4.748;2023-03-01T06:12:56;53.43;;;27.30;;
30233;SDS011;17046;52.074;4.748;2023-03-01T06:15:22;52.20;;;26.73;;
30233;SDS011;17046;52.074;4.748;2023-03-01T06:17:48;63.33;;;27.97;;
30233;SDS011;17046;52.074;4.748;2023-03-01T06:20:23;51.17;;;25.73;;
30233;SDS011;17046;52.074;4.748;2023-03-01T06:22:50;45.47;;;24.47;;
30233;SDS011;17046;52.074;4.748;2023-03-01T06:25:18;50.90;;;26.20;;
30233;SDS011;17046;52.074;4.748;2023-03-01T06:27:46;51.63;;;26.50;;
30233;SDS011;17046;52.074;4.748;2023-03-01T06:30:13;49.07;;;26.63;;
30233;SDS011;17046;52.074;4.748;2023-03-01T06:32:40;53.43;;;27.30;;
30233;SDS011;17046;52.074;4.748;2023-03-01T06:35:10;54.10;;;28.43;;
30233;SDS011;17046;52.074;4.748;2023-03-01T06:37:37;58.70;;;29.40;;
30233;SDS011;17046;52.074;4.748;2023-03-01T06:40:03;60.60;;;30.83;;
30233;SDS011;17046;52.074;4.748;2023-03-01T06:42:33;56.73;;;29.87;;
30233;SDS011;17046;52.074;4.748;2023-03-01T06:45:02;55.30;;;30.87;;
30233;SDS011;17046;52.074;4.748;2023-03-01T06:47:29;61.83;;;31.03;;
30233;SDS011;17046;52.074;4.748;2023-03-01T06:49:55;55.17;;;29.70;;
30233;SDS011;17046;52.074;4.748;2023-03-01T06:52:20;60.67;;;29.60;;
30233;SDS011;17046;52.074;4.748;2023-03-01T06:54:46;53.33;;;27.50;;
30233;SDS011;17046;52.074;4.748;2023-03-01T06:57:11;52.67;;;27.93;;
30233;SDS011;17046;52.074;4.748;2023-03-01T06:59:37;56.77;;;27.43;;
30233;SDS011;17046;52.074;4.748;2023-03-01T07:02:02;44.20;;;24.37;;
30233;SDS011;17046;52.074;4.748;2023-03-01T07:04:28;42.73;;;23.70;;
30233;SDS011;17046;52.074;4.748;2023-03-01T07:06:55;53.70;;;27.60;;
30233;SDS011;17046;52.074;4.748;2023-03-01T07:09:24;50.13;;;25.70;;
30233;SDS011;17046;52.074;4.748;2023-03-01T07:11:49;55.53;;;26.07;;
30233;SDS011;17046;52.074;4.748;2023-03-01T07:14:15;54.17;;;26.10;;
30233;SDS011;17046;52.074;4.748;2023-03-01T07:16:41;54.27;;;26.20;;
30233;SDS011;17046;52.074;4.748;2023-03-01T07:19:07;57.67;;;27.10;;
30233;SDS011;17046;52.074;4.748;2023-03-01T07:21:32;63.13;;;27.90;;
30233;SDS011;17046;52.074;4.748;2023-03-01T07:23:58;59.07;;;27.37;;
30233;SDS011;17046;52.074;4.748;2023-03-01T07:26:23;57.23;;;28.10;;
30233;SDS011;17046;52.074;4.748;2023-03-01T07:28:49;66.97;;;29.53;;
30233;SDS011;17046;52.074;4.748;2023-03-01T07:31:14;60.90;;;28.77;;
30233;SDS011;17046;52.074;4.748;2023-03-01T07:33:40;69.17;;;30.23;;
30233;SDS011;17046;52.074;4.748;2023-03-01T07:36:06;68.10;;;30.70;;
30233;SDS011;17046;52.074;4.748;2023-03-01T07:38:32;67.57;;;30.03;;
30233;SDS011;17046;52.074;4.748;2023-03-01T07:41:01;67.17;;;32.30;;
30233;SDS011;17046;52.074;4.748;2023-03-01T07:43:28;69.93;;;31.93;;
30233;SDS011;17046;52.074;4.748;2023-03-01T07:45:57;74.33;;;32.10;;
30233;SDS011;17046;52.074;4.748;2023-03-01T07:48:25;73.10;;;32.53;;
30233;SDS011;17046;52.074;4.748;2023-03-01T07:50:50;75.17;;;34.10;;
30233;SDS011;17046;52.074;4.748;2023-03-01T07:53:16;71.43;;;32.93;;
30233;SDS011;17046;52.074;4.748;2023-03-01T07:55:42;72.03;;;33.97;;
30233;SDS011;17046;52.074;4.748;2023-03-01T07:58:07;76.60;;;34.60;;
30233;SDS011;17046;52.074;4.748;2023-03-01T08:00:33;77.10;;;33.77;;
30233;SDS011;17046;52.074;4.748;2023-03-01T08:02:59;69.23;;;33.40;;
30233;SDS011;17046;52.074;4.748;2023-03-01T08:05:25;65.77;;;29.97;;
30233;SDS011;17046;52.074;4.748;2023-03-01T08:07:51;68.83;;;31.90;;
30233;SDS011;17046;52.074;4.748;2023-03-01T08:10:17;64.83;;;29.93;;
30233;SDS011;17046;52.074;4.748;2023-03-01T08:12:43;60.77;;;30.30;;
30233;SDS011;17046;52.074;4.748;2023-03-01T08:15:09;62.53;;;29.63;;
30233;SDS011;17046;52.074;4.748;2023-03-01T08:17:35;58.83;;;29.70;;
30233;SDS011;17046;52.074;4.748;2023-03-01T08:20:00;57.87;;;29.33;;
30233;SDS011;17046;52.074;4.748;2023-03-01T08:22:27;58.93;;;28.50;;
30233;SDS011;17046;52.074;4.748;2023-03-01T08:24:53;54.70;;;27.83;;
30233;SDS011;17046;52.074;4.748;2023-03-01T08:27:20;53.20;;;27.90;;
30233;SDS011;17046;52.074;4.748;2023-03-01T08:29:46;55.47;;;27.00;;
30233;SDS011;17046;52.074;4.748;2023-03-01T08:32:11;51.53;;;26.23;;
30233;SDS011;17046;52.074;4.748;2023-03-01T08:34:37;45.00;;;24.07;;
30233;SDS011;17046;52.074;4.748;2023-03-01T08:37:03;45.97;;;25.27;;
30233;SDS011;17046;52.074;4.748;2023-03-01T08:39:28;44.07;;;24.67;;
30233;SDS011;17046;52.074;4.748;2023-03-01T08:41:54;42.37;;;23.17;;
30233;SDS011;17046;52.074;4.748;2023-03-01T08:44:20;39.23;;;22.23;;
30233;SDS011;17046;52.074;4.748;2023-03-01T08:46:46;37.27;;;20.53;;
30233;SDS011;17046;52.074;4.748;2023-03-01T08:49:14;39.13;;;21.17;;
30233;SDS011;17046;52.074;4.748;2023-03-01T08:51:43;36.07;;;20.20;;
30233;SDS011;17046;52.074;4.748;2023-03-01T08:54:11;31.63;;;17.53;;
30233;SDS011;17046;52.074;4.748;2023-03-01T08:56:39;35.63;;;18.60;;
30233;SDS011;17046;52.074;4.748;2023-03-01T08:59:05;27.33;;;15.57;;
30233;SDS011;17046;52.074;4.748;2023-03-01T09:01:31;25.93;;;16.73;;
30233;SDS011;17046;52.074;4.748;2023-03-01T09:03:57;25.57;;;15.60;;
30233;SDS011;17046;52.074;4.748;2023-03-01T09:06:23;25.73;;;14.27;;
30233;SDS011;17046;52.074;4.748;2023-03-01T09:08:49;26.13;;;16.40;;
30233;SDS011;17046;52.074;4.748;2023-03-01T09:11:17;25.63;;;14.43;;
30233;SDS011;17046;52.074;4.748;2023-03-01T09:13:45;25.07;;;14.57;;
30233;SDS011;17046;52.074;4.748;2023-03-01T09:16:14;22.83;;;13.80;;
30233;SDS011;17046;52.074;4.748;2023-03-01T09:18:42;20.90;;;13.67;;
30233;SDS011;17046;52.074;4.748;2023-03-01T09:21:13;24.17;;;13.73;;
30233;SDS011;17046;52.074;4.748;2023-03-01T09:23:40;23.60;;;13.83;;
30233;SDS011;17046;52.074;4.748;2023-03-01T09:26:09;24.90;;;14.10;;
30233;SDS011;17046;52.074;4.748;2023-03-01T09:28:36;27.73;;;14.40;;
30233;SDS011;17046;52.074;4.748;2023-03-01T09:31:03;21.13;;;12.87;;
30233;SDS011;17046;52.074;4.748;2023-03-01T09:33:29;20.80;;;12.90;;
30233;SDS011;17046;52.074;4.748;2023-03-01T09:36:00;22.03;;;12.97;;
30233;SDS011;17046;52.074;4.748;2023-03-01T09:38:28;21.43;;;13.03;;
30233;SDS011;17046;52.074;4.748;2023-03-01T09:40:54;21.47;;;12.17;;
30233;SDS011;17046;52.074;4.748;2023-03-01T09:43:31;19.27;;;12.03;;
30233;SDS011;17046;52.074;4.748;2023-03-01T09:45:59;21.70;;;12.20;;
30233;SDS011;17046;52.074;4.748;2023-03-01T09:48:31;20.00;;;11.43;;
30233;SDS011;17046;52.074;4.748;2023-03-01T09:51:09;19.73;;;11.17;;
30233;SDS011;17046;52.074;4.748;2023-03-01T09:53:42;19.53;;;11.30;;
30233;SDS011;17046;52.074;4.748;2023-03-01T10:07:17;13.37;;;8.40;;
30233;SDS011;17046;52.074;4.748;2023-03-01T10:09:55;14.03;;;7.83;;
30233;SDS011;17046;52.074;4.748;2023-03-01T10:12:23;12.30;;;8.00;;
30233;SDS011;17046;52.074;4.748;2023-03-01T10:17:51;15.93;;;9.20;;
30233;SDS011;17046;52.074;4.748;2023-03-01T10:20:26;17.00;;;9.40;;
30233;SDS011;17046;52.074;4.748;2023-03-01T10:22:58;15.83;;;10.00;;
30233;SDS011;17046;52.074;4.748;2023-03-01T10:25:36;13.83;;;8.57;;
30233;SDS011;17046;52.074;4.748;2023-03-01T10:28:28;18.90;;;10.00;;
30233;SDS011;17046;52.074;4.748;2023-03-01T10:31:01;16.57;;;9.53;;
30233;SDS011;17046;52.074;4.748;2023-03-01T10:33:31;16.30;;;10.73;;
30233;SDS011;17046;52.074;4.748;2023-03-01T10:35:58;19.37;;;9.70;;
30233;SDS011;17046;52.074;4.748;2023-03-01T10:38:24;18.77;;;10.37;;
30233;SDS011;17046;52.074;4.748;2023-03-01T10:40:51;17.80;;;10.83;;
30233;SDS011;17046;52.074;4.748;2023-03-01T10:43:19;19.17;;;10.27;;
30233;SDS011;17046;52.074;4.748;2023-03-01T10:45:45;16.20;;;10.20;;
30233;SDS011;17046;52.074;4.748;2023-03-01T10:48:13;17.63;;;11.30;;
30233;SDS011;17046;52.074;4.748;2023-03-01T10:50:45;14.67;;;9.10;;
30233;SDS011;17046;52.074;4.748;2023-03-01T10:53:28;14.43;;;9.20;;
30233;SDS011;17046;52.074;4.748;2023-03-01T10:55:58;13.20;;;7.73;;
30233;SDS011;17046;52.074;4.748;2023-03-01T10:58:29;14.87;;;7.73;;
30233;SDS011;17046;52.074;4.748;2023-03-01T11:01:00;11.80;;;7.70;;
30233;SDS011;17046;52.074;4.748;2023-03-01T11:03:32;14.27;;;7.93;;
30233;SDS011;17046;52.074;4.748;2023-03-01T11:06:04;14.10;;;8.07;;
30233;SDS011;17046;52.074;4.748;2023-03-01T11:08:51;13.23;;;8.57;;
30233;SDS011;17046;52.074;4.748;2023-03-01T11:11:36;13.67;;;8.43;;
30233;SDS011;17046;52.074;4.748;2023-03-01T11:14:21;15.50;;;8.93;;
30233;SDS011;17046;52.074;4.748;2023-03-01T11:20:00;16.73;;;9.07;;
30233;SDS011;17046;52.074;4.748;2023-03-01T11:22:55;12.83;;;7.77;;
30233;SDS011;17046;52.074;4.748;2023-03-01T11:25:25;10.57;;;6.77;;
30233;SDS011;17046;52.074;4.748;2023-03-01T11:27:54;10.83;;;6.10;;
30233;SDS011;17046;52.074;4.748;2023-03-01T11:30:28;10.40;;;6.63;;
30233;SDS011;17046;52.074;4.748;2023-03-01T11:33:01;10.57;;;6.73;;
30233;SDS011;17046;52.074;4.748;2023-03-01T11:35:36;10.07;;;6.07;;
30233;SDS011;17046;52.074;4.748;2023-03-01T11:38:18;11.57;;;6.20;;
30233;SDS011;17046;52.074;4.748;2023-03-01T11:40:52;9.87;;;5.20;;
30233;SDS011;17046;52.074;4.748;2023-03-01T11:43:30;7.70;;;4.83;;
30233;SDS011;17046;52.074;4.748;2023-03-01T11:54:13;7.80;;;4.90;;
30233;SDS011;17046;52.074;4.748;2023-03-01T11:56:54;8.30;;;4.60;;
30233;SDS011;17046;52.074;4.748;2023-03-01T11:59:57;8.70;;;5.17;;
30233;SDS011;17046;52.074;4.748;2023-03-01T12:05:04;8.13;;;4.63;;
30233;SDS011;17046;52.074;4.748;2023-03-01T12:10:57;11.80;;;5.30;;
30233;SDS011;17046;52.074;4.748;2023-03-01T12:13:56;8.60;;;5.50;;
30233;SDS011;17046;52.074;4.748;2023-03-01T12:16:27;9.47;;;5.47;;
30233;SDS011;17046;52.074;4.748;2023-03-01T12:22:13;9.43;;;6.23;;
30233;SDS011;17046;52.074;4.748;2023-03-01T12:24:54;13.33;;;5.77;;
30233;SDS011;17046;52.074;4.748;2023-03-01T12:27:29;10.67;;;5.67;;
30233;SDS011;17046;52.074;4.748;2023-03-01T12:50:39;7.40;;;4.50;;
30233;SDS011;17046;52.074;4.748;2023-03-01T12:53:31;8.57;;;4.57;;
30233;SDS011;17046;52.074;4.748;2023-03-01T12:56:05;7.83;;;4.50;;
30233;SDS011;17046;52.074;4.748;2023-03-01T12:58:36;7.40;;;3.97;;
30233;SDS011;17046;52.074;4.748;2023-03-01T13:06:39;7.80;;;4.90;;
30233;SDS011;17046;52.074;4.748;2023-03-01T13:09:10;6.03;;;4.07;;
30233;SDS011;17046;52.074;4.748;2023-03-01T13:11:41;7.93;;;5.03;;
30233;SDS011;17046;52.074;4.748;2023-03-01T13:16:45;8.43;;;4.73;;
30233;SDS011;17046;52.074;4.748;2023-03-01T13:21:44;7.27;;;4.70;;
30233;SDS011;17046;52.074;4.748;2023-03-01T13:29:50;7.83;;;4.33;;
30233;SDS011;17046;52.074;4.748;2023-03-01T13:32:28;7.70;;;4.73;;
30233;SDS011;17046;52.074;4.748;2023-03-01T13:37:45;7.80;;;4.83;;
30233;SDS011;17046;52.074;4.748;2023-03-01T13:42:48;7.97;;;4.63;;
30233;SDS011;17046;52.074;4.748;2023-03-01T13:47:52;6.83;;;4.47;;
30233;SDS011;17046;52.074;4.748;2023-03-01T13:50:23;9.37;;;5.10;;
30233;SDS011;17046;52.074;4.748;2023-03-01T13:52:53;7.80;;;4.80;;
30233;SDS011;17046;52.074;4.748;2023-03-01T13:55:24;6.00;;;4.40;;
30233;SDS011;17046;52.074;4.748;2023-03-01T13:57:55;8.10;;;4.40;;
30233;SDS011;17046;52.074;4.748;2023-03-01T14:00:27;6.30;;;4.30;;
30233;SDS011;17046;52.074;4.748;2023-03-01T14:03:00;10.73;;;4.80;;
30233;SDS011;17046;52.074;4.748;2023-03-01T14:05:57;9.17;;;4.43;;
30233;SDS011;17046;52.074;4.748;2023-03-01T14:08:29;6.57;;;4.43;;
30233;SDS011;17046;52.074;4.748;2023-03-01T14:11:20;9.17;;;4.73;;
30233;SDS011;17046;52.074;4.748;2023-03-01T14:19:17;7.90;;;4.50;;
30233;SDS011;17046;52.074;4.748;2023-03-01T14:21:46;7.83;;;4.73;;
30233;SDS011;17046;52.074;4.748;2023-03-01T14:24:20;8.73;;;4.37;;
30233;SDS011;17046;52.074;4.748;2023-03-01T14:26:47;8.43;;;4.80;;
30233;SDS011;17046;52.074;4.748;2023-03-01T14:32:10;5.90;;;4.13;;
30233;SDS011;17046;52.074;4.748;2023-03-01T14:34:40;11.40;;;4.40;;
30233;SDS011;17046;52.074;4.748;2023-03-01T14:37:10;5.80;;;4.30;;
30233;SDS011;17046;52.074;4.748;2023-03-01T14:39:36;7.50;;;4.20;;
30233;SDS011;17046;52.074;4.748;2023-03-01T14:42:04;7.80;;;3.90;;
30233;SDS011;17046;52.074;4.748;2023-03-01T14:44:30;7.67;;;4.47;;
30233;SDS011;17046;52.074;4.748;2023-03-01T14:46:58;7.73;;;4.10;;
30233;SDS011;17046;52.074;4.748;2023-03-01T14:49:28;6.20;;;3.50;;
30233;SDS011;17046;52.074;4.748;2023-03-01T14:51:57;7.90;;;4.27;;
30233;SDS011;17046;52.074;4.748;2023-03-01T14:57:05;8.90;;;4.33;;
30233;SDS011;17046;52.074;4.748;2023-03-01T14:59:32;5.63;;;3.63;;
30233;SDS011;17046;52.074;4.748;2023-03-01T15:01:59;7.60;;;3.90;;
30233;SDS011;17046;52.074;4.748;2023-03-01T15:04:26;6.57;;;4.17;;
30233;SDS011;17046;52.074;4.748;2023-03-01T15:06:53;7.60;;;3.87;;
30233;SDS011;17046;52.074;4.748;2023-03-01T15:09:20;5.63;;;3.60;;
30233;SDS011;17046;52.074;4.748;2023-03-01T15:15:23;7.57;;;4.10;;
30233;SDS011;17046;52.074;4.748;2023-03-01T15:17:58;6.77;;;3.83;;
30233;SDS011;17046;52.074;4.748;2023-03-01T15:20:27;8.33;;;4.07;;
30233;SDS011;17046;52.074;4.748;2023-03-01T15:22:55;5.57;;;3.70;;
30233;SDS011;17046;52.074;4.748;2023-03-01T15:25:23;7.20;;;3.63;;
30233;SDS011;17046;52.074;4.748;2023-03-01T15:27:54;5.57;;;3.30;;
30233;SDS011;17046;52.074;4.748;2023-03-01T15:30:25;8.67;;;4.43;;
30233;SDS011;17046;52.074;4.748;2023-03-01T15:35:49;8.57;;;4.17;;
30233;SDS011;17046;52.074;4.748;2023-03-01T15:41:22;7.57;;;4.57;;
30233;SDS011;17046;52.074;4.748;2023-03-01T15:44:25;7.63;;;4.33;;
30233;SDS011;17046;52.074;4.748;2023-03-01T15:46:52;7.67;;;4.47;;
30233;SDS011;17046;52.074;4.748;2023-03-01T15:51:53;7.20;;;4.27;;
30233;SDS011;17046;52.074;4.748;2023-03-01T15:54:20;7.93;;;4.27;;
30233;SDS011;17046;52.074;4.748;2023-03-01T15:56:48;10.33;;;4.73;;
30233;SDS011;17046;52.074;4.748;2023-03-01T15:59:14;6.27;;;4.10;;
30233;SDS011;17046;52.074;4.748;2023-03-01T16:01:40;9.73;;;4.70;;
30233;SDS011;17046;52.074;4.748;2023-03-01T16:04:06;8.00;;;4.20;;
30233;SDS011;17046;52.074;4.748;2023-03-01T16:06:31;7.13;;;4.47;;
30233;SDS011;17046;52.074;4.748;2023-03-01T16:08:57;9.23;;;4.57;;
30233;SDS011;17046;52.074;4.748;2023-03-01T16:11:23;7.20;;;4.70;;
30233;SDS011;17046;52.074;4.748;2023-03-01T16:13:48;9.10;;;4.20;;
30233;SDS011;17046;52.074;4.748;2023-03-01T16:16:15;7.70;;;4.23;;
30233;SDS011;17046;52.074;4.748;2023-03-01T16:18:45;7.67;;;5.27;;
30233;SDS011;17046;52.074;4.748;2023-03-01T16:21:16;8.27;;;5.20;;
30233;SDS011;17046;52.074;4.748;2023-03-01T16:23:47;7.90;;;4.57;;
30233;SDS011;17046;52.074;4.748;2023-03-01T16:26:13;7.90;;;4.70;;
30233;SDS011;17046;52.074;4.748;2023-03-01T16:28:40;9.07;;;5.07;;
30233;SDS011;17046;52.074;4.748;2023-03-01T16:31:06;10.60;;;5.27;;
30233;SDS011;17046;52.074;4.748;2023-03-01T16:33:33;8.00;;;4.53;;
30233;SDS011;17046;52.074;4.748;2023-03-01T16:35:59;9.43;;;4.77;;
30233;SDS011;17046;52.074;4.748;2023-03-01T16:38:35;8.50;;;4.77;;